createdAt,value
2019-05-17T00:01:57.519Z,9.20
2019-05-17T00:04:27.032Z,9.20
2019-05-17T00:06:57.471Z,9.10
2019-05-17T00:09:27.736Z,9.10
2019-05-17T00:11:58.010Z,9.00
2019-05-17T00:14:36.537Z,9.00
2019-05-17T00:17:06.993Z,9.00
2019-05-17T00:19:37.303Z,8.90
2019-05-17T00:22:07.611Z,8.90
2019-05-17T00:24:37.919Z,9.00
2019-05-17T00:27:08.196Z,8.90
2019-05-17T00:29:38.538Z,8.90
2019-05-17T00:32:08.811Z,8.90
2019-05-17T00:34:39.155Z,8.80
2019-05-17T00:37:09.630Z,8.80
2019-05-17T00:39:39.991Z,8.80
2019-05-17T00:42:10.274Z,8.80
2019-05-17T00:44:41.036Z,8.70
2019-05-17T00:47:12.321Z,8.70
2019-05-17T00:49:42.704Z,8.70
2019-05-17T00:52:12.973Z,8.70
2019-05-17T00:54:44.334Z,8.70
2019-05-17T00:57:16.550Z,8.70
2019-05-17T00:59:47.533Z,8.70
2019-05-17T01:02:18.271Z,8.70
2019-05-17T01:04:50.134Z,8.80
2019-05-17T01:07:20.410Z,8.70
2019-05-17T01:09:50.763Z,8.70
2019-05-17T01:12:21.053Z,8.70
2019-05-17T01:15:09.549Z,8.70
2019-05-17T01:17:39.905Z,8.70
2019-05-17T01:20:10.873Z,8.70
2019-05-17T01:22:41.210Z,8.60
2019-05-17T01:25:11.959Z,8.60
2019-05-17T01:27:42.279Z,8.60
2019-05-17T01:30:12.739Z,8.60
2019-05-17T01:32:43.054Z,8.60
2019-05-17T01:35:16.797Z,8.50
2019-05-17T01:37:47.540Z,8.50
2019-05-17T01:40:18.152Z,8.50
2019-05-17T01:42:48.460Z,8.50
2019-05-17T01:45:18.746Z,8.50
2019-05-17T01:47:49.061Z,8.40
2019-05-17T01:50:19.344Z,8.40
2019-05-17T01:52:49.660Z,8.40
2019-05-17T01:55:19.882Z,8.30
2019-05-17T01:57:50.194Z,8.30
2019-05-17T02:00:20.682Z,8.30
2019-05-17T02:02:52.577Z,8.30
2019-05-17T02:05:23.946Z,8.30
2019-05-17T02:07:54.263Z,8.30
2019-05-17T02:10:27.031Z,8.30
2019-05-17T02:12:57.177Z,8.30
2019-05-17T02:15:28.539Z,8.30
2019-05-17T02:17:58.876Z,8.20
2019-05-17T02:20:29.238Z,8.20
2019-05-17T02:22:59.575Z,8.20
2019-05-17T02:25:29.917Z,8.20
2019-05-17T02:28:01.523Z,8.20
2019-05-17T02:30:33.755Z,8.10
2019-05-17T02:33:04.556Z,8.10
2019-05-17T02:35:35.152Z,8.00
2019-05-17T02:38:05.964Z,8.00
2019-05-17T02:40:36.356Z,8.00
2019-05-17T02:43:06.680Z,8.00
2019-05-17T02:45:36.953Z,8.00
2019-05-17T02:48:08.399Z,8.00
2019-05-17T02:50:38.649Z,7.90
2019-05-17T02:53:08.970Z,7.90
2019-05-17T02:55:39.261Z,7.90
2019-05-17T02:58:09.574Z,7.90
2019-05-17T03:00:39.834Z,7.80
2019-05-17T03:03:13.209Z,7.80
2019-05-17T03:05:43.100Z,7.80
2019-05-17T03:08:13.603Z,7.80
2019-05-17T03:10:43.873Z,7.80
2019-05-17T03:13:17.904Z,7.70
2019-05-17T03:15:46.062Z,7.80
2019-05-17T03:18:17.489Z,7.80
2019-05-17T03:20:47.823Z,7.80
2019-05-17T03:23:18.080Z,7.70
2019-05-17T03:25:48.376Z,7.70
2019-05-17T03:28:18.649Z,7.70
2019-05-17T03:30:55.599Z,7.70
2019-05-17T03:33:26.623Z,7.70
2019-05-17T03:35:56.378Z,7.70
2019-05-17T03:38:27.444Z,7.80
2019-05-17T03:41:11.854Z,7.80
2019-05-17T03:43:29.665Z,7.80
2019-05-17T03:46:02.868Z,7.80
2019-05-17T03:48:33.322Z,7.80
2019-05-17T03:51:04.024Z,7.80
2019-05-17T03:53:34.288Z,7.80
2019-05-17T03:56:04.915Z,7.80
2019-05-17T03:58:35.213Z,7.80
2019-05-17T04:01:05.528Z,7.80
2019-05-17T04:03:35.897Z,7.80
2019-05-17T04:06:06.321Z,7.80
2019-05-17T04:08:36.588Z,7.80
2019-05-17T04:11:20.374Z,7.80
2019-05-17T04:13:38.849Z,7.80
2019-05-17T04:16:09.634Z,7.80
2019-05-17T04:18:43.645Z,7.90
2019-05-17T04:21:13.076Z,7.90
2019-05-17T04:23:43.401Z,7.90
2019-05-17T04:26:14.757Z,7.90
2019-05-17T04:28:45.058Z,7.90
2019-05-17T04:31:15.424Z,8.00
2019-05-17T04:33:45.746Z,8.00
2019-05-17T04:36:16.274Z,7.90
2019-05-17T04:38:46.583Z,7.90
2019-05-17T04:41:35.990Z,7.90
2019-05-17T04:43:52.915Z,8.00
2019-05-17T04:46:23.562Z,8.00
2019-05-17T04:48:53.963Z,8.10
2019-05-17T04:51:24.416Z,8.20
2019-05-17T04:53:54.744Z,8.30
2019-05-17T04:56:25.109Z,8.30
2019-05-17T04:58:55.405Z,8.40
2019-05-17T05:01:25.743Z,8.40
2019-05-17T05:03:56.036Z,8.50
2019-05-17T05:06:29.065Z,8.50
2019-05-17T05:09:02.334Z,8.60
2019-05-17T05:11:32.994Z,8.60
2019-05-17T05:14:03.377Z,8.70
2019-05-17T05:16:34.554Z,8.90
2019-05-17T05:19:04.985Z,9.00
2019-05-17T05:21:35.258Z,9.10
2019-05-17T05:24:05.563Z,9.20
2019-05-17T05:26:35.851Z,9.30
2019-05-17T05:29:06.157Z,9.40
2019-05-17T05:31:36.424Z,9.50
2019-05-17T05:34:06.731Z,9.50
2019-05-17T05:36:37.015Z,9.60
2019-05-17T05:39:08.046Z,9.60
2019-05-17T05:41:38.305Z,9.70
2019-05-17T05:44:08.623Z,9.80
2019-05-17T05:46:38.947Z,9.80
2019-05-17T05:49:09.305Z,9.80
2019-05-17T05:51:46.152Z,9.90
2019-05-17T05:54:16.442Z,9.90
2019-05-17T05:56:46.725Z,10.00
2019-05-17T05:59:17.052Z,10.10
2019-05-17T06:01:47.354Z,10.10
2019-05-17T06:04:18.781Z,10.20
2019-05-17T06:06:49.116Z,10.30
2019-05-17T06:09:19.461Z,10.50
2019-05-17T06:11:51.821Z,10.60
2019-05-17T06:14:21.744Z,10.70
2019-05-17T06:16:53.106Z,10.80
2019-05-17T06:19:24.449Z,10.90
2019-05-17T06:21:54.731Z,11.00
2019-05-17T06:24:25.065Z,11.10
2019-05-17T06:26:55.333Z,11.20
2019-05-17T06:29:25.683Z,11.40
2019-05-17T06:31:57.705Z,11.50
2019-05-17T06:34:28.049Z,11.70
2019-05-17T06:36:58.328Z,11.80
2019-05-17T06:39:28.864Z,12.00
2019-05-17T06:41:59.164Z,12.10
2019-05-17T06:44:29.474Z,12.30
2019-05-17T06:47:02.425Z,12.40
2019-05-17T06:49:31.846Z,12.50
2019-05-17T06:52:02.618Z,12.50
2019-05-17T06:54:33.252Z,12.60
2019-05-17T06:57:03.643Z,12.70
2019-05-17T06:59:33.972Z,12.80
2019-05-17T07:02:05.284Z,12.90
2019-05-17T07:04:35.922Z,12.90
2019-05-17T07:07:24.083Z,13.00
2019-05-17T07:09:55.417Z,13.00
2019-05-17T07:12:26.530Z,13.10
2019-05-17T07:14:58.420Z,13.20
2019-05-17T07:17:30.391Z,13.30
2019-05-17T07:20:00.978Z,13.40
2019-05-17T07:22:31.252Z,13.50
2019-05-17T07:25:01.630Z,13.60
2019-05-17T07:27:41.508Z,13.70
2019-05-17T07:30:06.181Z,13.80
2019-05-17T07:32:36.465Z,13.80
2019-05-17T07:35:10.414Z,13.90
2019-05-17T07:37:40.410Z,14.00
2019-05-17T07:40:12.242Z,14.10
2019-05-17T07:42:42.573Z,14.20
2019-05-17T07:45:13.148Z,14.20
2019-05-17T07:47:43.498Z,14.30
2019-05-17T07:50:13.996Z,14.40
2019-05-17T07:52:44.350Z,14.40
2019-05-17T07:55:14.620Z,14.50
2019-05-17T07:57:45.251Z,14.50
2019-05-17T08:00:20.123Z,14.50
2019-05-17T08:02:50.628Z,14.60
2019-05-17T08:05:21.532Z,14.60
2019-05-17T08:07:52.047Z,14.60
2019-05-17T08:10:22.312Z,14.70
2019-05-17T08:12:52.637Z,14.80
2019-05-17T08:15:23.861Z,14.90
2019-05-17T08:17:54.174Z,14.90
2019-05-17T08:20:24.471Z,15.00
2019-05-17T08:22:54.805Z,15.10
2019-05-17T08:25:30.616Z,15.20
2019-05-17T08:27:59.362Z,15.30
2019-05-17T08:30:30.239Z,15.40
2019-05-17T08:33:01.015Z,15.50
2019-05-17T08:35:31.452Z,15.60
2019-05-17T08:38:01.764Z,15.60
2019-05-17T08:40:32.341Z,15.70
2019-05-17T08:43:02.672Z,15.70
2019-05-17T08:45:32.963Z,15.80
2019-05-17T08:48:03.292Z,15.90
2019-05-17T08:50:33.672Z,15.90
2019-05-17T08:53:04.011Z,15.90
2019-05-17T08:55:34.287Z,15.90
2019-05-17T08:58:04.602Z,16.00
2019-05-17T09:00:35.105Z,16.10
2019-05-17T09:03:05.570Z,16.10
2019-05-17T09:05:35.853Z,16.20
2019-05-17T09:08:06.272Z,16.30
2019-05-17T09:10:36.824Z,16.40
2019-05-17T09:13:07.098Z,16.40
2019-05-17T09:15:39.955Z,16.30
2019-05-17T09:18:10.448Z,16.30
2019-05-17T09:20:41.825Z,16.30
2019-05-17T09:23:12.163Z,16.30
2019-05-17T09:25:42.347Z,16.30
2019-05-17T09:28:12.897Z,16.30
2019-05-17T09:30:43.169Z,16.40
2019-05-17T09:33:13.489Z,16.50
2019-05-17T09:35:44.877Z,16.60
2019-05-17T09:38:15.243Z,16.70
2019-05-17T09:40:45.540Z,16.70
2019-05-17T09:43:17.428Z,16.70
2019-05-17T09:45:50.428Z,16.80
2019-05-17T09:48:19.780Z,16.90
2019-05-17T09:50:50.614Z,17.00
2019-05-17T09:53:22.269Z,17.20
2019-05-17T09:55:52.540Z,17.40
2019-05-17T09:58:22.876Z,17.60
2019-05-17T10:00:53.166Z,17.70
2019-05-17T10:03:24.189Z,17.80
2019-05-17T10:05:54.588Z,17.90
2019-05-17T10:08:24.928Z,17.90
2019-05-17T10:11:05.943Z,18.00
2019-05-17T10:13:27.163Z,18.00
2019-05-17T10:15:57.482Z,17.90
2019-05-17T10:18:29.571Z,17.90
2019-05-17T10:20:59.955Z,17.80
2019-05-17T10:23:30.477Z,17.80
2019-05-17T10:26:00.799Z,17.80
2019-05-17T10:28:31.180Z,17.80
2019-05-17T10:31:02.398Z,17.80
2019-05-17T10:33:32.997Z,17.70
2019-05-17T10:36:03.360Z,17.70
2019-05-17T10:38:34.698Z,17.70
2019-05-17T10:41:06.019Z,17.60
2019-05-17T10:43:36.387Z,17.70
2019-05-17T10:46:06.712Z,17.70
2019-05-17T10:48:36.986Z,17.60
2019-05-17T10:51:26.629Z,17.60
2019-05-17T10:53:56.901Z,17.60
2019-05-17T10:56:27.229Z,17.70
2019-05-17T10:58:59.967Z,17.80
2019-05-17T11:01:30.529Z,17.90
2019-05-17T11:04:01.180Z,18.00
2019-05-17T11:06:31.538Z,18.10
2019-05-17T11:09:01.865Z,18.30
2019-05-17T11:11:33.698Z,18.30
2019-05-17T11:14:08.613Z,18.30
2019-05-17T11:16:38.952Z,18.50
2019-05-17T11:19:09.250Z,18.50
2019-05-17T11:21:48.809Z,18.60
2019-05-17T11:24:19.085Z,18.60
2019-05-17T11:26:49.491Z,18.70
2019-05-17T11:29:19.793Z,18.70
2019-05-17T11:31:50.131Z,18.70
2019-05-17T11:34:20.427Z,18.70
2019-05-17T11:36:51.760Z,18.70
2019-05-17T11:39:22.046Z,18.10
2019-05-17T11:41:52.292Z,18.60
2019-05-17T11:44:23.699Z,18.60
2019-05-17T11:46:54.007Z,18.50
2019-05-17T11:49:24.344Z,18.50
2019-05-17T11:51:54.775Z,18.50
2019-05-17T11:54:26.404Z,18.50
2019-05-17T11:56:56.695Z,18.50
2019-05-17T11:59:26.977Z,18.50
2019-05-17T12:01:57.322Z,18.50
2019-05-17T12:04:27.605Z,18.50
2019-05-17T12:06:58.711Z,18.40
2019-05-17T12:09:36.837Z,18.40
2019-05-17T12:12:00.957Z,18.30
2019-05-17T12:14:37.740Z,18.40
2019-05-17T12:17:08.071Z,18.40
2019-05-17T12:19:38.341Z,18.50
2019-05-17T12:22:11.212Z,18.60
2019-05-17T12:24:41.538Z,18.70
2019-05-17T12:27:11.842Z,18.80
2019-05-17T12:29:42.166Z,18.80
2019-05-17T12:32:17.257Z,18.80
2019-05-17T12:34:47.688Z,18.90
2019-05-17T12:37:18.091Z,18.90
2019-05-17T12:39:48.377Z,18.90
2019-05-17T12:42:20.937Z,18.90
2019-05-17T12:44:51.174Z,18.90
2019-05-17T12:47:21.540Z,18.60
2019-05-17T12:49:51.773Z,19.00
2019-05-17T12:52:23.637Z,18.90
2019-05-17T12:54:53.848Z,18.80
2019-05-17T12:57:26.708Z,18.80
2019-05-17T12:59:57.994Z,18.80
2019-05-17T13:02:28.317Z,18.90
2019-05-17T13:04:58.607Z,19.10
2019-05-17T13:07:28.928Z,19.20
2019-05-17T13:09:59.209Z,19.40
2019-05-17T13:12:32.269Z,19.40
2019-05-17T13:15:02.533Z,19.60
2019-05-17T13:17:32.921Z,19.60
2019-05-17T13:20:06.269Z,19.80
2019-05-17T13:22:36.652Z,19.80
2019-05-17T13:25:08.769Z,19.90
2019-05-17T13:27:39.536Z,20.10
2019-05-17T13:30:10.742Z,20.20
2019-05-17T13:32:41.141Z,20.40
2019-05-17T13:35:12.944Z,20.50
2019-05-17T13:37:43.293Z,20.70
2019-05-17T13:40:14.065Z,20.80
2019-05-17T13:42:44.426Z,20.90
2019-05-17T13:45:16.217Z,21.00
2019-05-17T13:47:46.496Z,21.10
2019-05-17T13:50:17.133Z,21.20
2019-05-17T13:52:50.214Z,21.20
2019-05-17T13:55:20.522Z,21.30
2019-05-17T13:57:50.790Z,21.30
2019-05-17T14:00:21.218Z,21.30
2019-05-17T14:02:51.573Z,21.30
2019-05-17T14:05:23.337Z,21.30
2019-05-17T14:07:53.628Z,21.40
2019-05-17T14:10:27.795Z,21.30
2019-05-17T14:12:55.958Z,21.20
2019-05-17T14:15:26.281Z,21.00
2019-05-17T14:17:57.489Z,20.80
2019-05-17T14:20:27.823Z,20.70
2019-05-17T14:22:58.136Z,20.60
2019-05-17T14:25:28.478Z,20.50
2019-05-17T14:27:58.800Z,20.50
2019-05-17T14:30:29.086Z,20.50
2019-05-17T14:32:59.388Z,20.50
2019-05-17T14:35:29.701Z,20.50
2019-05-17T14:37:59.932Z,20.50
2019-05-17T14:41:03.994Z,20.50
2019-05-17T14:43:02.347Z,20.60
2019-05-17T14:45:32.709Z,20.50
2019-05-17T14:48:03.015Z,20.50
2019-05-17T14:50:33.365Z,20.60
2019-05-17T14:53:03.634Z,20.60
2019-05-17T14:55:34.123Z,20.60
2019-05-17T14:58:04.657Z,20.70
2019-05-17T15:00:35.008Z,20.70
2019-05-17T15:03:07.544Z,20.80
2019-05-17T15:05:37.309Z,20.80
2019-05-17T15:08:07.659Z,20.90
2019-05-17T15:10:38.013Z,20.90
2019-05-17T15:13:08.379Z,21.00
2019-05-17T15:15:38.776Z,21.10
2019-05-17T15:18:09.929Z,21.20
2019-05-17T15:20:40.565Z,21.20
2019-05-17T15:23:10.884Z,21.30
2019-05-17T15:25:41.247Z,21.40
2019-05-17T15:28:11.588Z,21.50
2019-05-17T15:30:41.955Z,21.50
2019-05-17T15:33:12.998Z,21.60
2019-05-17T15:35:43.351Z,21.60
2019-05-17T15:38:13.684Z,21.60
2019-05-17T15:40:44.036Z,21.70
2019-05-17T15:43:14.391Z,21.80
2019-05-17T15:45:44.663Z,22.00
2019-05-17T15:48:15.970Z,22.10
2019-05-17T15:50:46.254Z,22.10
2019-05-17T15:53:16.593Z,22.20
2019-05-17T15:55:46.868Z,22.20
2019-05-17T15:58:17.185Z,22.30
2019-05-17T16:00:47.466Z,22.40
2019-05-17T16:03:17.886Z,22.50
2019-05-17T16:05:48.186Z,22.60
2019-05-17T16:08:18.565Z,22.70
2019-05-17T16:10:48.852Z,22.90
2019-05-17T16:13:19.204Z,23.10
2019-05-17T16:15:49.521Z,23.20
2019-05-17T16:18:19.928Z,23.50
2019-05-17T16:20:50.222Z,23.70
2019-05-17T16:23:20.638Z,23.90
2019-05-17T16:25:51.026Z,24.20
2019-05-17T16:28:23.220Z,24.30
2019-05-17T16:30:58.237Z,24.40
2019-05-17T16:33:26.087Z,24.60
2019-05-17T16:36:00.853Z,24.70
2019-05-17T16:38:31.182Z,25.00
2019-05-17T16:41:01.459Z,25.10
2019-05-17T16:43:31.936Z,25.30
2019-05-17T16:46:02.206Z,25.50
2019-05-17T16:48:32.585Z,25.60
2019-05-17T16:51:02.974Z,26.00
2019-05-17T16:53:33.410Z,26.20
2019-05-17T16:56:03.777Z,26.40
2019-05-17T16:58:34.465Z,26.50
2019-05-17T17:01:05.354Z,26.50
2019-05-17T17:03:44.152Z,26.80
2019-05-17T17:06:10.340Z,26.80
2019-05-17T17:08:41.860Z,27.20
2019-05-17T17:11:13.262Z,27.30
2019-05-17T17:13:43.635Z,27.50
2019-05-17T17:16:13.917Z,27.80
2019-05-17T17:18:44.237Z,28.00
2019-05-17T17:21:14.573Z,28.40
2019-05-17T17:23:44.800Z,28.70
2019-05-17T17:26:15.118Z,28.80
2019-05-17T17:28:45.394Z,29.00
2019-05-17T17:31:16.916Z,29.20
2019-05-17T17:33:48.100Z,29.20
2019-05-17T17:36:19.558Z,29.00
2019-05-17T17:38:51.044Z,28.80
2019-05-17T17:41:37.942Z,28.60
2019-05-17T17:44:08.229Z,28.60
2019-05-17T17:46:38.677Z,28.50
2019-05-17T17:49:08.972Z,28.30
2019-05-17T17:51:39.682Z,27.80
2019-05-17T17:54:09.972Z,27.20
2019-05-17T17:56:40.351Z,26.50
2019-05-17T17:59:10.836Z,25.80
2019-05-17T18:01:45.304Z,25.00
2019-05-17T18:04:15.594Z,24.40
2019-05-17T18:06:46.070Z,24.00
2019-05-17T18:09:16.401Z,23.50
2019-05-17T18:11:46.782Z,23.20
2019-05-17T18:14:17.122Z,22.80
2019-05-17T18:16:47.553Z,22.50
2019-05-17T18:19:19.651Z,22.10
2019-05-17T18:21:55.332Z,21.80
2019-05-17T18:24:25.824Z,21.40
2019-05-17T18:26:56.065Z,21.00
2019-05-17T18:29:26.290Z,20.70
2019-05-17T18:31:56.646Z,20.40
2019-05-17T18:34:28.112Z,20.20
2019-05-17T18:36:58.451Z,20.00
2019-05-17T18:39:30.612Z,19.70
2019-05-17T18:42:01.019Z,19.50
2019-05-17T18:44:32.811Z,19.30
2019-05-17T18:47:04.609Z,19.20
2019-05-17T18:49:34.936Z,19.00
2019-05-17T18:52:05.517Z,18.90
2019-05-17T18:54:35.796Z,18.80
2019-05-17T18:57:06.235Z,18.70
2019-05-17T18:59:36.597Z,18.50
2019-05-17T19:02:07.038Z,18.40
2019-05-17T19:04:37.447Z,18.30
2019-05-17T19:07:09.268Z,18.30
2019-05-17T19:09:39.639Z,18.20
2019-05-17T19:12:09.948Z,18.10
2019-05-17T19:14:42.840Z,18.00
2019-05-17T19:17:12.386Z,17.90
2019-05-17T19:19:42.649Z,17.80
2019-05-17T19:22:12.962Z,17.80
2019-05-17T19:24:46.321Z,17.70
2019-05-17T19:27:16.637Z,17.70
2019-05-17T19:29:46.914Z,17.60
2019-05-17T19:32:17.237Z,17.50
2019-05-17T19:34:47.536Z,17.50
2019-05-17T19:37:17.815Z,17.50
2019-05-17T19:39:48.033Z,17.50
2019-05-17T19:42:18.773Z,17.40
2019-05-17T19:44:58.555Z,17.50
2019-05-17T19:47:21.333Z,17.40
2019-05-17T19:49:51.726Z,17.40
2019-05-17T19:52:22.155Z,17.30
2019-05-17T19:54:52.412Z,17.30
2019-05-17T19:57:23.934Z,17.20
2019-05-17T19:59:54.208Z,17.20
2019-05-17T20:02:24.701Z,17.10
2019-05-17T20:04:54.963Z,17.00
2019-05-17T20:07:25.233Z,17.00
2019-05-17T20:09:55.538Z,16.90
2019-05-17T20:12:27.573Z,16.90
2019-05-17T20:14:57.935Z,16.80
2019-05-17T20:17:28.225Z,16.70
2019-05-17T20:19:58.652Z,16.70
2019-05-17T20:22:28.966Z,16.60
2019-05-17T20:24:59.248Z,16.50
2019-05-17T20:27:29.556Z,16.40
2019-05-17T20:29:59.836Z,16.40
2019-05-17T20:32:30.132Z,16.30
2019-05-17T20:35:00.751Z,16.20
2019-05-17T20:37:31.346Z,16.10
2019-05-17T20:40:01.684Z,16.10
2019-05-17T20:42:32.693Z,16.00
2019-05-17T20:45:12.327Z,16.00
2019-05-17T20:47:42.644Z,15.90
2019-05-17T20:50:13.147Z,15.90
2019-05-17T20:52:44.575Z,15.80
2019-05-17T20:55:16.292Z,15.70
2019-05-17T20:57:47.615Z,15.70
2019-05-17T21:00:18.802Z,15.60
2019-05-17T21:02:49.199Z,15.60
2019-05-17T21:05:19.698Z,15.50
2019-05-17T21:07:50.003Z,15.50
2019-05-17T21:10:21.402Z,15.40
2019-05-17T21:12:52.734Z,15.30
2019-05-17T21:15:23.086Z,15.30
2019-05-17T21:17:53.412Z,15.20
2019-05-17T21:20:23.663Z,15.10
2019-05-17T21:22:54.031Z,15.00
2019-05-17T21:25:24.320Z,15.00
2019-05-17T21:27:54.596Z,15.00
2019-05-17T21:30:24.911Z,14.90
2019-05-17T21:32:55.293Z,14.90
2019-05-17T21:35:27.125Z,14.80
2019-05-17T21:37:57.527Z,14.80
2019-05-17T21:40:27.822Z,14.70
2019-05-17T21:42:58.183Z,14.70
2019-05-17T21:45:28.455Z,14.70
2019-05-17T21:47:58.747Z,14.60
2019-05-17T21:50:29.054Z,14.60
2019-05-17T21:52:59.332Z,14.50
2019-05-17T21:55:31.164Z,14.50
2019-05-17T21:58:04.586Z,14.50
2019-05-17T22:00:51.539Z,14.40
2019-05-17T22:03:22.172Z,14.40
2019-05-17T22:05:52.478Z,14.30
2019-05-17T22:08:22.792Z,14.30
2019-05-17T22:10:53.125Z,14.20
2019-05-17T22:13:23.391Z,14.20
2019-05-17T22:15:55.896Z,14.20
2019-05-17T22:18:26.217Z,14.20
2019-05-17T22:20:56.674Z,14.10
2019-05-17T22:23:26.941Z,14.10
2019-05-17T22:25:57.338Z,14.10
2019-05-17T22:28:27.566Z,14.10
2019-05-17T22:30:57.964Z,14.00
2019-05-17T22:33:28.719Z,14.00
2019-05-17T22:35:59.109Z,14.00
2019-05-17T22:38:29.389Z,14.00
2019-05-17T22:41:10.992Z,13.90
2019-05-17T22:43:41.267Z,13.90
2019-05-17T22:46:11.659Z,13.90
2019-05-17T22:48:43.414Z,13.90
2019-05-17T22:51:13.723Z,13.80
2019-05-17T22:53:44.000Z,13.80
2019-05-17T22:56:14.328Z,13.80
2019-05-17T22:58:44.537Z,13.80
2019-05-17T23:01:14.884Z,13.80
2019-05-17T23:03:45.481Z,13.80
2019-05-17T23:06:15.813Z,13.70
2019-05-17T23:08:46.125Z,13.70
2019-05-17T23:11:16.571Z,13.70
2019-05-17T23:13:46.848Z,13.70
2019-05-17T23:16:17.161Z,13.60
2019-05-17T23:19:13.249Z,13.60
2019-05-17T23:21:43.613Z,13.60
2019-05-17T23:24:13.923Z,13.50
2019-05-17T23:26:44.536Z,13.50
2019-05-17T23:29:14.737Z,13.40
2019-05-17T23:31:45.059Z,13.40
2019-05-17T23:34:15.331Z,13.40
2019-05-17T23:36:45.639Z,13.30
2019-05-17T23:39:15.838Z,13.30
2019-05-17T23:41:46.191Z,13.30
2019-05-17T23:44:16.507Z,13.30
2019-05-17T23:46:46.808Z,13.30
2019-05-17T23:49:17.174Z,13.30
2019-05-17T23:51:47.456Z,13.30
2019-05-17T23:54:17.761Z,13.20
2019-05-17T23:56:48.035Z,13.10
2019-05-17T23:59:18.337Z,13.10
